Time;durP1;ratioP1;P1;durP2;ratioP2;P2;SDS_P1;SDS_P2;PMS_P1;PMS_P2;Temp;Humidity;BMP_temperature;BMP_pressure;BME280_temperature;BME280_humidity;BME280_pressure;Samples;Min_cycle;Max_cycle;Signal;HPM_P1;HPM_P2
2022/03/14 00:00:09;;;;;;;6.78;4.28;;;4.60;42.00;;;;;;5032206;28;20260;-79
2022/03/14 00:02:37;;;;;;;6.75;4.50;;;4.60;41.80;;;;;;5032835;28;20210;-79
2022/03/14 00:05:07;;;;;;;4.85;4.18;;;4.60;42.40;;;;;;5032598;28;20241;-79
2022/03/14 00:07:37;;;;;;;7.57;5.63;;;4.60;41.70;;;;;;5032469;28;20279;-79
2022/03/14 00:10:06;;;;;;;4.57;4.18;;;4.50;41.90;;;;;;5033039;28;20218;-79
2022/03/14 00:12:37;;;;;;;8.48;5.35;;;4.50;41.70;;;;;;5032768;28;20249;-79
2022/03/14 00:15:09;;;;;;;5.13;4.47;;;4.50;41.50;;;;;;5032646;28;20211;-80
2022/03/14 00:17:37;;;;;;;7.07;5.15;;;4.50;41.60;;;;;;5032048;28;20289;-79
2022/03/14 00:20:07;;;;;;;4.78;4.15;;;4.50;41.90;;;;;;5032131;28;20246;-79
2022/03/14 00:22:37;;;;;;;4.95;4.45;;;4.40;41.60;;;;;;5032362;28;20229;-79
2022/03/14 00:25:06;;;;;;;5.82;4.50;;;4.40;41.80;;;;;;5032453;28;20203;-79
2022/03/14 00:27:36;;;;;;;6.95;4.15;;;4.30;41.70;;;;;;5032019;28;20222;-79
2022/03/14 00:30:06;;;;;;;4.35;3.80;;;4.30;43.90;;;;;;5031977;28;20310;-79
2022/03/14 00:32:34;;;;;;;5.80;4.35;;;4.30;42.50;;;;;;5031593;28;20215;-79
2022/03/14 00:35:03;;;;;;;5.35;4.32;;;4.20;42.20;;;;;;5031787;28;20270;-79
2022/03/14 00:37:32;;;;;;;4.78;4.25;;;4.20;42.40;;;;;;5032684;28;20245;-80
2022/03/14 00:40:01;;;;;;;5.28;4.80;;;4.20;42.20;;;;;;5031780;28;20279;-79
2022/03/14 00:42:30;;;;;;;8.93;4.63;;;4.20;42.30;;;;;;5031663;28;20297;-79
2022/03/14 00:45:00;;;;;;;8.00;4.70;;;4.10;42.60;;;;;;5031473;28;20222;-80
2022/03/14 00:47:28;;;;;;;4.57;3.83;;;4.10;42.40;;;;;;5032135;28;20222;-79
2022/03/14 00:49:57;;;;;;;4.20;3.80;;;4.10;42.50;;;;;;5031937;28;20237;-79
2022/03/14 00:52:25;;;;;;;5.97;4.78;;;4.10;44.10;;;;;;5034045;28;20215;-79
2022/03/14 00:54:53;;;;;;;5.60;4.25;;;4.10;43.00;;;;;;5035971;28;20233;-79
2022/03/14 00:57:22;;;;;;;6.07;4.63;;;4.10;42.70;;;;;;5035368;28;20298;-79
2022/03/14 00:59:51;;;;;;;4.25;3.85;;;4.00;43.40;;;;;;5035453;28;20272;-79
2022/03/14 01:02:21;;;;;;;10.18;5.00;;;4.10;42.90;;;;;;5035050;28;20258;-81
2022/03/14 01:04:49;;;;;;;4.13;3.67;;;4.00;43.20;;;;;;5035550;28;20238;-79
2022/03/14 01:07:17;;;;;;;4.65;4.07;;;4.10;43.00;;;;;;5035082;28;20260;-79
2022/03/14 01:09:46;;;;;;;9.68;4.88;;;4.10;42.90;;;;;;5035060;28;20249;-80
2022/03/14 01:12:15;;;;;;;5.40;4.43;;;4.10;42.40;;;;;;5034851;28;20233;-79
2022/03/14 01:14:44;;;;;;;7.38;5.65;;;4.00;42.70;;;;;;5035103;28;20266;-79
2022/03/14 01:17:12;;;;;;;4.82;4.22;;;4.00;42.40;;;;;;5035465;28;20256;-79
2022/03/14 01:19:42;;;;;;;6.55;4.10;;;4.00;42.90;;;;;;5035103;28;20261;-80
2022/03/14 01:22:11;;;;;;;8.77;5.18;;;4.00;42.60;;;;;;5034796;28;20219;-79
2022/03/14 01:24:43;;;;;;;9.88;4.68;;;3.90;42.60;;;;;;5034891;28;20206;-79
2022/03/14 01:27:11;;;;;;;5.28;4.28;;;3.90;43.10;;;;;;5035231;28;20210;-79
2022/03/14 01:29:40;;;;;;;4.20;3.90;;;3.90;43.00;;;;;;5035286;28;20290;-80
2022/03/14 01:32:10;;;;;;;6.78;4.57;;;3.80;42.80;;;;;;5034793;28;20306;-80
2022/03/14 01:34:38;;;;;;;4.75;4.35;;;3.80;43.80;;;;;;5034971;28;20210;-80
2022/03/14 01:37:08;;;;;;;5.30;4.43;;;3.80;43.10;;;;;;5034816;28;20256;-80
2022/03/14 01:39:37;;;;;;;9.90;5.20;;;3.80;43.10;;;;;;5035453;28;20210;-80
2022/03/14 01:42:05;;;;;;;7.95;5.05;;;3.70;43.20;;;;;;5034908;28;20265;-79
2022/03/14 01:44:34;;;;;;;5.10;4.00;;;3.70;43.60;;;;;;5035084;28;20211;-80
2022/03/14 01:47:02;;;;;;;4.20;3.80;;;3.70;43.70;;;;;;5035118;28;20234;-80
2022/03/14 01:49:30;;;;;;;4.47;4.00;;;3.70;44.60;;;;;;5034689;28;20206;-80
2022/03/14 01:51:59;;;;;;;5.78;4.38;;;3.60;44.20;;;;;;5034708;28;20252;-80
2022/03/14 01:54:29;;;;;;;5.82;4.45;;;3.60;43.60;;;;;;5035197;28;20273;-80
2022/03/14 01:56:58;;;;;;;4.45;4.03;;;3.60;44.20;;;;;;5034817;28;20210;-80
2022/03/14 01:59:29;;;;;;;5.60;4.43;;;3.50;44.60;;;;;;5034976;28;20222;-79
2022/03/14 02:01:57;;;;;;;3.55;3.25;;;3.50;44.60;;;;;;5033590;28;20292;-80
2022/03/14 02:04:26;;;;;;;5.18;4.68;;;3.50;44.40;;;;;;5034662;28;20215;-80
2022/03/14 02:06:57;;;;;;;5.15;3.72;;;3.40;44.10;;;;;;5035189;28;20206;-79
2022/03/14 02:09:25;;;;;;;5.37;4.43;;;3.40;44.20;;;;;;5034805;28;20206;-80
2022/03/14 02:12:06;;;;;;;7.57;4.10;;;3.40;44.30;;;;;;5034263;28;20290;-79
2022/03/14 02:14:39;;;;;;;6.13;4.20;;;3.40;44.60;;;;;;5034391;28;20266;-80
2022/03/14 02:17:09;;;;;;;27.95;4.25;;;3.40;46.10;;;;;;5034532;28;20252;-80
2022/03/14 02:19:37;;;;;;;9.73;3.60;;;3.40;44.20;;;;;;5034258;28;20429;-79
2022/03/14 02:22:12;;;;;;;3.95;3.65;;;3.30;44.70;;;;;;5033954;28;20250;-80
2022/03/14 02:24:42;;;;;;;4.38;3.97;;;3.30;44.70;;;;;;5034817;28;20226;-80
2022/03/14 02:27:11;;;;;;;4.45;4.05;;;3.30;44.70;;;;;;5033948;28;20298;-79
2022/03/14 02:29:39;;;;;;;5.25;3.25;;;3.20;44.50;;;;;;5034294;28;20233;-80
2022/03/14 02:32:09;;;;;;;3.90;3.50;;;3.20;44.60;;;;;;5033800;28;20317;-80
2022/03/14 02:34:37;;;;;;;5.50;3.95;;;3.20;45.00;;;;;;5034069;28;20281;-80
2022/03/14 02:37:07;;;;;;;5.82;4.28;;;3.10;45.30;;;;;;5034142;28;20222;-80
2022/03/14 02:39:38;;;;;;;4.67;4.13;;;3.20;45.60;;;;;;5033632;28;20237;-79
2022/03/14 02:42:07;;;;;;;3.40;3.15;;;3.10;45.30;;;;;;5033516;28;20231;-80
2022/03/14 02:44:41;;;;;;;4.65;3.63;;;3.10;45.80;;;;;;5033988;28;20202;-80
2022/03/14 02:47:10;;;;;;;8.18;4.32;;;3.10;45.30;;;;;;5033957;28;20198;-80
2022/03/14 02:49:38;;;;;;;5.80;4.78;;;3.10;44.90;;;;;;5034070;28;20293;-79
2022/03/14 02:52:08;;;;;;;3.80;3.50;;;3.20;45.10;;;;;;5033302;28;20253;-79
2022/03/14 02:54:37;;;;;;;3.72;3.33;;;3.10;45.30;;;;;;5033736;28;20333;-80
2022/03/14 02:57:05;;;;;;;17.55;4.90;;;3.10;45.80;;;;;;5033992;28;20230;-80
2022/03/14 02:59:34;;;;;;;3.95;3.55;;;3.10;45.70;;;;;;5033596;28;20293;-79
2022/03/14 03:02:03;;;;;;;6.83;3.90;;;3.10;45.30;;;;;;5032878;28;20309;-79
2022/03/14 03:04:32;;;;;;;5.67;4.30;;;3.00;45.70;;;;;;5033346;28;20210;-80
2022/03/14 03:07:00;;;;;;;10.53;4.83;;;3.00;46.60;;;;;;5033445;28;20285;-79
2022/03/14 03:09:31;;;;;;;4.03;3.53;;;3.00;45.70;;;;;;5015920;28;20202;-80
2022/03/14 03:12:02;;;;;;;5.00;4.37;;;3.00;46.60;;;;;;5033389;28;20257;-80
2022/03/14 03:14:31;;;;;;;5.13;3.95;;;3.00;45.80;;;;;;5032447;28;20206;-80
2022/03/14 03:17:00;;;;;;;3.97;3.67;;;3.00;46.10;;;;;;5033080;28;20215;-79
2022/03/14 03:19:29;;;;;;;7.05;5.00;;;3.00;45.90;;;;;;5033163;28;20229;-79
2022/03/14 03:21:57;;;;;;;4.03;3.73;;;2.90;45.80;;;;;;5033106;28;20254;-79
2022/03/14 03:24:25;;;;;;;3.95;3.55;;;2.90;47.00;;;;;;5033316;28;20224;-79
2022/03/14 03:26:56;;;;;;;4.95;4.10;;;2.90;46.30;;;;;;5033151;28;20294;-79
2022/03/14 03:29:24;;;;;;;5.35;4.35;;;2.90;46.30;;;;;;5032821;28;20241;-79
2022/03/14 03:31:52;;;;;;;5.70;4.23;;;2.90;46.50;;;;;;5032737;28;20226;-78
2022/03/14 03:34:21;;;;;;;4.53;4.13;;;2.80;46.50;;;;;;5033175;28;20210;-79
2022/03/14 03:36:49;;;;;;;5.53;3.53;;;2.80;46.60;;;;;;5033096;28;20313;-79
2022/03/14 03:39:17;;;;;;;4.27;3.83;;;2.80;46.80;;;;;;5032920;28;20290;-79
2022/03/14 03:41:46;;;;;;;4.77;3.40;;;2.80;46.90;;;;;;5032810;28;20261;-79
2022/03/14 03:44:16;;;;;;;4.60;4.07;;;2.80;47.60;;;;;;5032761;28;20241;-79
2022/03/14 03:46:44;;;;;;;9.13;4.10;;;2.80;47.70;;;;;;5032840;28;20245;-79
2022/03/14 03:49:12;;;;;;;4.20;3.63;;;2.70;47.30;;;;;;5032414;28;20238;-79
2022/03/14 03:51:41;;;;;;;3.88;3.55;;;2.70;47.50;;;;;;5032453;28;20234;-79
2022/03/14 03:54:09;;;;;;;4.55;3.90;;;2.70;47.60;;;;;;5032806;28;20217;-79
2022/03/14 03:56:38;;;;;;;3.67;3.27;;;2.70;48.20;;;;;;5032745;28;20243;-79
2022/03/14 03:59:06;;;;;;;7.05;4.20;;;2.70;47.70;;;;;;5032591;28;20290;-79
2022/03/14 04:01:37;;;;;;;3.83;3.53;;;2.70;47.60;;;;;;5032793;28;20252;-79
2022/03/14 04:04:06;;;;;;;8.80;4.50;;;2.70;47.60;;;;;;5032143;28;20232;-79
2022/03/14 04:06:35;;;;;;;5.37;4.17;;;2.60;47.50;;;;;;5032444;28;20297;-79
2022/03/14 04:09:06;;;;;;;4.13;3.73;;;2.60;47.80;;;;;;5032430;28;20268;-79
2022/03/14 04:11:35;;;;;;;8.93;4.20;;;2.60;47.90;;;;;;5032393;28;20305;-79
2022/03/14 04:14:03;;;;;;;6.07;4.30;;;2.60;47.90;;;;;;5032378;28;20207;-79
2022/03/14 04:16:32;;;;;;;4.30;3.92;;;2.60;47.60;;;;;;5032356;28;20233;-79
2022/03/14 04:19:02;;;;;;;5.90;4.20;;;2.50;47.60;;;;;;5032028;28;20207;-79
2022/03/14 04:21:35;;;;;;;3.63;3.08;;;2.50;48.00;;;;;;5031938;28;20234;-78
2022/03/14 04:24:05;;;;;;;4.88;4.20;;;2.50;47.90;;;;;;5032159;28;20272;-79
2022/03/14 04:26:33;;;;;;;7.03;4.45;;;2.50;48.40;;;;;;5035298;28;20237;-79
2022/03/14 04:29:02;;;;;;;4.53;3.80;;;2.50;48.30;;;;;;5036555;28;20237;-79
2022/03/14 04:31:30;;;;;;;5.10;3.90;;;2.50;48.40;;;;;;5035799;28;20234;-78
2022/03/14 04:33:58;;;;;;;10.50;5.13;;;2.50;48.60;;;;;;5036318;28;20252;-79
2022/03/14 04:36:28;;;;;;;5.00;4.03;;;2.50;48.70;;;;;;5036052;28;20245;-79
2022/03/14 04:38:56;;;;;;;3.50;3.20;;;2.40;48.60;;;;;;5036432;28;20281;-79
2022/03/14 04:41:25;;;;;;;4.17;3.77;;;2.40;49.20;;;;;;5036154;28;20301;-78
2022/03/14 04:43:53;;;;;;;7.20;3.87;;;2.40;49.60;;;;;;5035718;28;20309;-79
2022/03/14 04:46:21;;;;;;;4.40;4.00;;;2.40;50.10;;;;;;5036118;28;20241;-80
2022/03/14 04:48:50;;;;;;;4.53;4.07;;;2.40;49.80;;;;;;5035841;28;20210;-79
2022/03/14 04:51:18;;;;;;;4.80;4.00;;;2.40;49.90;;;;;;5035788;28;20310;-79
2022/03/14 04:53:48;;;;;;;7.17;4.07;;;2.30;49.90;;;;;;5036063;28;20237;-79
2022/03/14 04:56:16;;;;;;;4.17;3.77;;;2.30;50.10;;;;;;5035876;28;20298;-79
2022/03/14 04:58:45;;;;;;;5.03;4.00;;;2.30;50.10;;;;;;5035879;28;20211;-79
2022/03/14 05:01:13;;;;;;;7.15;4.15;;;2.30;50.10;;;;;;5035322;28;20261;-79
2022/03/14 05:03:41;;;;;;;4.40;4.00;;;2.20;50.60;;;;;;5035484;28;20291;-79
2022/03/14 05:06:10;;;;;;;4.47;4.07;;;2.20;50.60;;;;;;5035921;28;20218;-79
2022/03/14 05:08:38;;;;;;;3.90;3.60;;;2.20;51.00;;;;;;5035749;28;20294;-79
2022/03/14 05:11:11;;;;;;;6.70;4.05;;;2.20;51.10;;;;;;5035287;28;20309;-79
2022/03/14 05:13:39;;;;;;;6.17;4.50;;;2.20;51.30;;;;;;5035505;28;20305;-78
2022/03/14 05:16:07;;;;;;;13.87;4.37;;;2.20;52.20;;;;;;5035540;28;20305;-78
2022/03/14 05:18:35;;;;;;;4.00;3.60;;;2.20;52.50;;;;;;5035325;28;20210;-79
2022/03/14 05:21:04;;;;;;;4.80;3.95;;;2.20;51.80;;;;;;5035266;28;20230;-79
2022/03/14 05:23:32;;;;;;;3.97;3.67;;;2.20;52.20;;;;;;5035231;28;20226;-79
2022/03/14 05:26:00;;;;;;;5.55;4.28;;;2.20;52.40;;;;;;5035487;28;20233;-79
2022/03/14 05:28:30;;;;;;;3.75;3.38;;;2.20;52.10;;;;;;5035183;28;20266;-79
2022/03/14 05:30:58;;;;;;;6.27;4.77;;;2.20;52.50;;;;;;5035254;28;20314;-79
2022/03/14 05:33:27;;;;;;;4.47;4.07;;;2.20;52.60;;;;;;5035460;28;20198;-78
2022/03/14 05:35:55;;;;;;;4.30;3.90;;;2.20;52.60;;;;;;5035536;28;20238;-79
2022/03/14 05:38:24;;;;;;;6.37;4.27;;;2.20;53.70;;;;;;5034160;28;20243;-79
2022/03/14 05:40:52;;;;;;;6.90;4.30;;;2.20;53.70;;;;;;5034638;28;20249;-79
2022/03/14 05:43:21;;;;;;;5.97;4.00;;;2.20;52.50;;;;;;5034661;28;20489;-79
2022/03/14 05:45:51;;;;;;;5.32;3.78;;;2.10;53.20;;;;;;5034790;28;20240;-79
2022/03/14 05:48:19;;;;;;;5.38;4.88;;;2.20;52.90;;;;;;5034987;28;20214;-79
2022/03/14 05:50:48;;;;;;;5.73;4.17;;;2.20;54.30;;;;;;5034914;28;20306;-79
2022/03/14 05:53:16;;;;;;;6.20;4.37;;;2.20;54.30;;;;;;5034351;28;20258;-78
2022/03/14 05:55:44;;;;;;;7.30;4.53;;;2.20;53.60;;;;;;5034838;28;20281;-78
2022/03/14 05:58:12;;;;;;;4.27;3.87;;;2.20;53.30;;;;;;5035131;28;20286;-79
2022/03/14 06:00:41;;;;;;;4.90;3.90;;;2.20;53.90;;;;;;5034484;28;20264;-79
2022/03/14 06:03:10;;;;;;;4.60;4.20;;;2.20;54.20;;;;;;5034602;28;20218;-79
2022/03/14 06:05:39;;;;;;;6.68;4.28;;;2.20;54.10;;;;;;5034389;28;20210;-79
2022/03/14 06:08:07;;;;;;;7.80;4.93;;;2.30;56.60;;;;;;5034286;28;20293;-78
2022/03/14 06:10:36;;;;;;;3.97;3.67;;;2.30;54.90;;;;;;5034532;28;20226;-78
2022/03/14 06:13:04;;;;;;;5.20;4.43;;;2.30;55.00;;;;;;5034428;28;20233;-78
2022/03/14 06:15:33;;;;;;;5.50;4.60;;;2.20;54.90;;;;;;5034775;28;20198;-79
2022/03/14 06:18:01;;;;;;;6.07;4.50;;;2.20;55.10;;;;;;5034411;28;20210;-78
2022/03/14 06:20:31;;;;;;;4.70;3.23;;;2.30;55.10;;;;;;5033791;28;20254;-79
2022/03/14 06:23:00;;;;;;;4.45;4.05;;;2.30;55.50;;;;;;5034667;28;20294;-79
2022/03/14 06:25:28;;;;;;;6.30;4.70;;;2.30;55.50;;;;;;5034032;28;20281;-79
2022/03/14 06:27:57;;;;;;;6.80;4.80;;;2.30;55.90;;;;;;5034235;28;20293;-79
2022/03/14 06:30:25;;;;;;;5.00;4.27;;;2.30;56.00;;;;;;5034050;28;20273;-79
2022/03/14 06:32:54;;;;;;;7.70;5.50;;;2.40;56.70;;;;;;5033747;28;20306;-78
2022/03/14 06:35:22;;;;;;;5.10;4.32;;;2.40;56.40;;;;;;5034114;28;20234;-80
2022/03/14 06:37:52;;;;;;;5.35;4.63;;;2.40;56.70;;;;;;5034291;28;20402;-79
2022/03/14 06:40:21;;;;;;;8.05;4.32;;;2.50;57.00;;;;;;5033564;28;20233;-79
2022/03/14 06:42:50;;;;;;;5.37;4.63;;;2.50;57.20;;;;;;5033852;28;20241;-78
2022/03/14 06:45:23;;;;;;;10.95;4.75;;;2.50;57.50;;;;;;5033442;28;20253;-78
2022/03/14 06:47:52;;;;;;;6.00;5.20;;;2.50;58.10;;;;;;5033428;28;20220;-78
2022/03/14 06:50:21;;;;;;;6.78;5.07;;;2.60;57.80;;;;;;5033609;28;20226;-79
2022/03/14 06:52:51;;;;;;;9.80;5.43;;;2.60;57.70;;;;;;5033468;28;20210;-79
2022/03/14 06:55:20;;;;;;;4.40;4.00;;;2.70;58.30;;;;;;5033537;28;20293;-78
2022/03/14 06:57:49;;;;;;;5.63;4.40;;;2.70;58.20;;;;;;5033255;28;20241;-78
2022/03/14 07:00:18;;;;;;;6.95;5.20;;;2.70;59.70;;;;;;5033095;28;20313;-79
2022/03/14 07:02:46;;;;;;;5.18;4.15;;;2.80;59.10;;;;;;5033497;28;20237;-78
2022/03/14 07:05:17;;;;;;;6.07;4.32;;;2.90;58.80;;;;;;5033434;28;20226;-78
2022/03/14 07:07:46;;;;;;;7.03;4.35;;;3.00;59.10;;;;;;5033605;28;20270;-79
2022/03/14 07:10:16;;;;;;;5.78;4.55;;;3.00;59.10;;;;;;5033126;28;20226;-79
2022/03/14 07:12:48;;;;;;;5.88;5.07;;;3.10;59.40;;;;;;5033175;28;20226;-79
2022/03/14 07:15:18;;;;;;;5.75;4.53;;;3.20;59.80;;;;;;5033563;28;20203;-79
2022/03/14 07:17:46;;;;;;;8.65;3.90;;;3.10;59.70;;;;;;5033527;28;20258;-78
2022/03/14 07:20:17;;;;;;;6.82;4.43;;;3.20;60.30;;;;;;5032968;28;20310;-79
2022/03/14 07:22:50;;;;;;;4.63;4.22;;;3.30;60.40;;;;;;5033120;28;20289;-79
2022/03/14 07:25:27;;;;;;;4.97;4.25;;;3.30;60.70;;;;;;5032702;28;20257;-79
2022/03/14 07:27:59;;;;;;;5.07;4.50;;;3.40;61.20;;;;;;5032943;28;20210;-82
2022/03/14 07:30:27;;;;;;;6.88;5.53;;;3.50;62.00;;;;;;5031786;28;20222;-83
2022/03/14 07:32:56;;;;;;;7.00;4.00;;;3.50;61.30;;;;;;5032913;28;20249;-80
2022/03/14 07:35:27;;;;;;;4.72;4.20;;;3.60;62.00;;;;;;5033260;28;20198;-78
2022/03/14 07:37:56;;;;;;;5.35;4.82;;;3.70;62.30;;;;;;5032835;28;20265;-85
2022/03/14 07:40:26;;;;;;;5.93;4.18;;;3.80;61.90;;;;;;5032748;28;20222;-84
2022/03/14 07:42:56;;;;;;;4.32;3.90;;;3.80;62.10;;;;;;5032954;28;20290;-83
2022/03/14 07:45:25;;;;;;;6.18;4.95;;;3.90;62.20;;;;;;5032806;28;20276;-84
2022/03/14 07:47:54;;;;;;;4.63;4.22;;;4.00;62.30;;;;;;5032543;28;20230;-85
2022/03/14 07:50:24;;;;;;;4.13;3.72;;;4.00;62.40;;;;;;5031138;28;20239;-85
2022/03/14 07:52:53;;;;;;;3.85;3.58;;;4.10;62.40;;;;;;5026666;28;20203;-84
2022/03/14 07:55:21;;;;;;;4.55;4.25;;;4.20;62.70;;;;;;5015231;28;20207;-84
2022/03/14 07:57:51;;;;;;;4.32;3.92;;;4.30;63.10;;;;;;5032842;28;20252;-84
2022/03/14 08:00:20;;;;;;;4.90;4.18;;;4.30;62.30;;;;;;5032568;28;20257;-85
2022/03/14 08:02:50;;;;;;;5.97;5.35;;;4.40;62.30;;;;;;5033741;28;20256;-84
2022/03/14 08:05:24;;;;;;;6.25;5.22;;;4.50;62.30;;;;;;5027074;28;20301;-84
2022/03/14 08:07:55;;;;;;;6.00;5.20;;;4.50;62.10;;;;;;5033324;28;20197;-85
2022/03/14 08:10:24;;;;;;;6.38;5.25;;;4.60;62.00;;;;;;5029130;28;20223;-85
2022/03/14 08:12:55;;;;;;;5.72;4.40;;;4.70;62.40;;;;;;5043732;28;20222;-85
2022/03/14 08:15:26;;;;;;;4.78;4.10;;;4.80;62.40;;;;;;5053350;28;20202;-85
2022/03/14 08:17:55;;;;;;;4.70;4.30;;;5.00;61.90;;;;;;5041029;28;20206;-85
2022/03/14 08:20:26;;;;;;;7.45;5.38;;;5.00;61.30;;;;;;5032900;28;20299;-85
2022/03/14 08:22:56;;;;;;;5.32;4.60;;;5.10;61.30;;;;;;5033520;28;20289;-85
2022/03/14 08:25:25;;;;;;;9.57;5.32;;;5.20;61.50;;;;;;5032850;28;20244;-86
2022/03/14 08:27:55;;;;;;;9.30;5.68;;;5.30;61.00;;;;;;5032151;28;20202;-86
2022/03/14 08:30:24;;;;;;;5.32;4.82;;;5.40;61.00;;;;;;5033123;28;20226;-86
2022/03/14 08:32:55;;;;;;;5.10;4.60;;;5.50;61.10;;;;;;5032882;28;20262;-85
2022/03/14 08:35:24;;;;;;;5.22;4.57;;;5.70;60.50;;;;;;5032977;28;20238;-85
2022/03/14 08:37:54;;;;;;;4.78;4.28;;;5.80;59.80;;;;;;5032856;28;20206;-85
2022/03/14 08:40:25;;;;;;;6.13;5.32;;;5.90;59.70;;;;;;5033177;28;20230;-87
2022/03/14 08:42:57;;;;;;;5.72;4.82;;;6.00;59.60;;;;;;5033352;28;20260;-85
2022/03/14 08:45:26;;;;;;;5.25;4.75;;;6.10;59.50;;;;;;5032608;28;20234;-85
2022/03/14 08:47:55;;;;;;;6.95;4.53;;;6.40;59.50;;;;;;5032764;28;20203;-84
2022/03/14 08:50:24;;;;;;;14.02;4.97;;;6.50;59.00;;;;;;5032073;28;20321;-85
2022/03/14 08:52:52;;;;;;;9.80;5.32;;;6.60;58.50;;;;;;5032990;28;20211;-85
2022/03/14 08:55:21;;;;;;;5.32;4.82;;;6.80;58.40;;;;;;5032197;28;20202;-86
2022/03/14 08:57:49;;;;;;;4.72;4.25;;;6.90;58.40;;;;;;5032453;28;20234;-86
2022/03/14 09:00:21;;;;;;;5.30;4.80;;;7.10;58.10;;;;;;5032896;28;20226;-85
2022/03/14 09:02:50;;;;;;;6.80;5.28;;;7.40;57.80;;;;;;5033141;28;20213;-85
2022/03/14 09:05:18;;;;;;;7.80;4.88;;;7.70;57.00;;;;;;5032650;28;20249;-85
2022/03/14 09:07:47;;;;;;;6.13;5.45;;;8.40;56.50;;;;;;5033436;28;20202;-85
2022/03/14 09:10:19;;;;;;;9.45;4.95;;;8.80;55.70;;;;;;5023972;28;20273;-85
2022/03/14 09:12:49;;;;;;;4.82;4.07;;;10.00;53.30;;;;;;5014544;28;20235;-85
2022/03/14 09:15:20;;;;;;;6.15;5.00;;;10.50;52.00;;;;;;5020286;28;20225;-85
2022/03/14 09:17:54;;;;;;;4.65;4.00;;;10.70;51.30;;;;;;5029314;28;20203;-86
2022/03/14 09:20:23;;;;;;;4.35;3.95;;;11.20;51.00;;;;;;5034345;28;20222;-86
2022/03/14 09:22:51;;;;;;;5.28;4.72;;;11.70;50.50;;;;;;5036244;28;20210;-87
2022/03/14 09:25:21;;;;;;;6.13;4.32;;;12.20;49.70;;;;;;5035769;28;20290;-86
2022/03/14 09:27:51;;;;;;;7.07;5.28;;;12.10;49.30;;;;;;5036301;28;20310;-86
2022/03/14 09:30:22;;;;;;;6.93;5.18;;;12.60;50.20;;;;;;5035666;28;20310;-87
2022/03/14 09:32:51;;;;;;;6.07;4.47;;;13.10;48.20;;;;;;5030972;28;20194;-86
2022/03/14 09:35:21;;;;;;;6.47;5.38;;;13.50;48.60;;;;;;5035506;28;20203;-86
2022/03/14 09:37:50;;;;;;;5.90;5.22;;;14.30;47.90;;;;;;5035104;28;20294;-87
2022/03/14 09:40:21;;;;;;;4.80;4.40;;;14.60;45.70;;;;;;5035607;28;20226;-86
2022/03/14 09:42:52;;;;;;;4.80;4.40;;;14.60;45.80;;;;;;5035749;28;20195;-86
2022/03/14 09:45:23;;;;;;;4.80;4.20;;;14.60;45.20;;;;;;5034854;28;20219;-85
2022/03/14 09:47:53;;;;;;;4.60;4.22;;;14.70;44.90;;;;;;5035094;28;20211;-86
2022/03/14 09:50:26;;;;;;;5.72;4.88;;;14.60;44.80;;;;;;5035048;28;20242;-86
2022/03/14 09:52:55;;;;;;;4.72;4.32;;;14.10;45.80;;;;;;5035222;28;20199;-86
2022/03/14 09:55:23;;;;;;;30.55;5.75;;;14.80;45.60;;;;;;5035680;28;20232;-85
2022/03/14 09:57:52;;;;;;;4.90;4.35;;;14.80;44.60;;;;;;5033745;28;20203;-88
2022/03/14 10:00:22;;;;;;;4.82;4.43;;;14.50;45.00;;;;;;5035239;28;20280;-88
2022/03/14 10:02:50;;;;;;;5.18;4.72;;;15.10;45.70;;;;;;5034562;28;20195;-88
2022/03/14 10:05:19;;;;;;;5.45;4.93;;;15.40;44.70;;;;;;5034052;28;20195;-83
2022/03/14 10:07:48;;;;;;;5.38;4.10;;;15.40;44.60;;;;;;5034581;28;20191;-83
2022/03/14 10:10:16;;;;;;;8.50;6.13;;;15.40;45.00;;;;;;5033649;28;20280;-87
2022/03/14 10:12:52;;;;;;;6.00;5.15;;;15.70;45.10;;;;;;5030018;28;20252;-88
2022/03/14 10:15:25;;;;;;;4.95;4.47;;;15.90;45.20;;;;;;5033674;28;20217;-87
2022/03/14 10:17:54;;;;;;;5.55;5.07;;;16.30;45.30;;;;;;5034884;28;20194;-87
2022/03/14 10:20:25;;;;;;;6.47;5.47;;;16.50;43.50;;;;;;5035114;28;20226;-86
2022/03/14 10:23:00;;;;;;;5.05;4.53;;;15.90;43.70;;;;;;5030436;28;20209;-87
2022/03/14 10:25:30;;;;;;;7.43;4.93;;;15.20;44.90;;;;;;5041867;28;20197;-87
2022/03/14 10:27:58;;;;;;;7.68;4.88;;;15.10;45.50;;;;;;5048260;28;20253;-86
2022/03/14 10:30:30;;;;;;;9.20;5.65;;;15.30;45.50;;;;;;5034834;28;20246;-86
2022/03/14 10:33:03;;;;;;;5.40;4.90;;;15.60;45.20;;;;;;5034895;28;20206;-86
2022/03/14 10:35:35;;;;;;;6.15;5.15;;;16.00;44.40;;;;;;5034220;28;20226;-87
2022/03/14 10:38:06;;;;;;;5.00;4.50;;;16.30;44.40;;;;;;5034633;28;20230;-86
2022/03/14 10:40:36;;;;;;;4.95;4.55;;;16.70;43.60;;;;;;5034357;28;20226;-86
2022/03/14 10:43:08;;;;;;;5.50;5.00;;;17.10;43.20;;;;;;5034525;28;20198;-86
2022/03/14 10:45:46;;;;;;;5.20;4.70;;;17.20;42.90;;;;;;5034331;28;20202;-86
2022/03/14 10:48:15;;;;;;;5.80;4.97;;;17.50;42.70;;;;;;5034552;28;20268;-87
2022/03/14 10:50:44;;;;;;;5.65;5.05;;;17.40;42.80;;;;;;5033933;28;20222;-87
2022/03/14 10:53:20;;;;;;;7.30;4.82;;;18.00;42.90;;;;;;5033855;28;20225;-87
2022/03/14 10:55:50;;;;;;;5.18;4.75;;;17.90;42.50;;;;;;5034131;28;20194;-87
2022/03/14 10:58:20;;;;;;;5.07;4.70;;;18.50;42.20;;;;;;5034261;28;20206;-86
2022/03/14 11:00:51;;;;;;;5.15;4.65;;;18.80;41.40;;;;;;5033969;28;20284;-87
2022/03/14 11:03:24;;;;;;;5.05;4.65;;;18.90;41.60;;;;;;5033643;28;20248;-86
2022/03/14 11:05:57;;;;;;;5.68;5.18;;;18.70;42.30;;;;;;5033674;28;20263;-85
2022/03/14 11:08:34;;;;;;;9.15;5.28;;;19.10;42.10;;;;;;5034482;28;20202;-86
2022/03/14 11:11:05;;;;;;;4.85;4.45;;;19.30;41.50;;;;;;5029015;28;20218;-83
2022/03/14 11:13:40;;;;;;;10.43;5.38;;;19.30;42.00;;;;;;5014517;28;20191;-91
2022/03/14 11:16:14;;;;;;;5.88;5.00;;;19.20;43.90;;;;;;5014724;28;20199;-90
2022/03/14 11:18:43;;;;;;;6.00;5.40;;;19.00;44.10;;;;;;5014756;28;20282;-80
2022/03/14 11:21:13;;;;;;;5.72;5.07;;;18.50;44.40;;;;;;5014329;28;20234;-84
2022/03/14 11:23:44;;;;;;;6.38;5.40;;;18.60;46.80;;;;;;5014265;28;20195;-84
2022/03/14 11:26:13;;;;;;;5.20;4.80;;;18.80;49.10;;;;;;5017145;28;20241;-88
2022/03/14 11:28:43;;;;;;;6.65;5.45;;;19.00;46.50;;;;;;5022918;28;20199;-87
2022/03/14 11:31:13;;;;;;;6.35;5.78;;;19.20;45.70;;;;;;5014425;28;20247;-87
2022/03/14 11:33:44;;;;;;;5.55;5.13;;;19.40;42.40;;;;;;5014078;28;20203;-88
2022/03/14 11:36:13;;;;;;;7.82;6.35;;;19.70;43.90;;;;;;5013623;28;20282;-87
2022/03/14 11:38:43;;;;;;;5.30;4.88;;;19.30;44.40;;;;;;5017884;28;20202;-87
2022/03/14 11:41:12;;;;;;;6.95;5.78;;;19.00;46.30;;;;;;5033564;28;20226;-87
2022/03/14 11:43:42;;;;;;;5.82;5.22;;;19.20;47.50;;;;;;5033301;28;20218;-87
2022/03/14 11:46:34;;;;;;;5.82;5.32;;;19.60;48.70;;;;;;5032961;28;20222;-88
2022/03/14 11:49:14;;;;;;;6.22;5.68;;;19.80;46.80;;;;;;5032303;28;20198;-87
2022/03/14 11:51:43;;;;;;;7.03;5.50;;;19.90;46.10;;;;;;5033408;28;20291;-87
2022/03/14 11:54:12;;;;;;;7.68;6.55;;;20.10;44.80;;;;;;5038861;28;20205;-87
2022/03/14 11:56:53;;;;;;;9.25;6.65;;;20.20;45.60;;;;;;5029300;28;20199;-87
2022/03/14 11:59:29;;;;;;;6.15;5.55;;;20.20;43.80;;;;;;5027241;28;20203;-86
2022/03/14 12:02:00;;;;;;;8.52;6.40;;;20.30;44.10;;;;;;5013363;28;20234;-87
2022/03/14 12:04:31;;;;;;;6.95;6.25;;;20.60;44.10;;;;;;5029467;28;20233;-85
2022/03/14 12:07:11;;;;;;;8.00;6.53;;;21.00;46.10;;;;;;5033579;28;20207;-87
2022/03/14 12:09:45;;;;;;;6.75;5.78;;;21.10;46.00;;;;;;5033195;28;20206;-87
2022/03/14 12:12:30;;;;;;;9.15;6.22;;;20.90;40.70;;;;;;5032876;28;20198;-87
2022/03/14 12:15:00;;;;;;;8.95;5.72;;;20.90;43.90;;;;;;5032571;28;20214;-86
2022/03/14 12:17:35;;;;;;;6.78;5.80;;;20.70;45.00;;;;;;5039943;28;20225;-87
2022/03/14 12:20:06;;;;;;;12.27;6.15;;;20.50;44.00;;;;;;5053509;28;20223;-87
2022/03/14 12:22:46;;;;;;;6.80;6.10;;;20.20;42.60;;;;;;5037777;28;20222;-84
2022/03/14 12:25:40;;;;;;;6.63;5.50;;;20.30;44.10;;;;;;5032658;28;20277;-82
2022/03/14 12:28:33;;;;;;;9.93;6.57;;;20.50;44.50;;;;;;5013890;28;20223;-83
2022/03/14 12:31:11;;;;;;;7.38;6.68;;;21.00;42.70;;;;;;5035099;28;20238;-83
2022/03/14 12:33:43;;;;;;;8.68;7.22;;;20.70;42.30;;;;;;5029878;28;20202;-83
2022/03/14 12:36:34;;;;;;;12.00;6.72;;;20.70;43.30;;;;;;5033302;28;20256;-87
2022/03/14 12:39:22;;;;;;;9.25;6.03;;;20.40;45.30;;;;;;5032158;28;20203;-87
2022/03/14 12:41:51;;;;;;;6.47;5.80;;;20.60;43.90;;;;;;5013129;28;20241;-87
2022/03/14 12:44:21;;;;;;;4.80;4.43;;;20.40;43.10;;;;;;5024676;28;20237;-87
2022/03/14 12:46:52;;;;;;;6.00;5.50;;;20.70;43.10;;;;;;5034193;28;20198;-87
2022/03/14 12:49:49;;;;;;;6.47;5.88;;;21.00;43.50;;;;;;5037017;28;20221;-87
2022/03/14 12:52:21;;;;;;;6.38;5.40;;;21.10;43.00;;;;;;5036561;28;20221;-87
2022/03/14 12:54:50;;;;;;;6.78;6.15;;;21.20;42.40;;;;;;5036930;28;20206;-86
2022/03/14 12:57:23;;;;;;;6.88;5.75;;;21.40;42.00;;;;;;5036908;28;20256;-87
2022/03/14 12:59:59;;;;;;;7.07;5.15;;;21.40;42.20;;;;;;5037012;28;20203;-88
2022/03/14 13:02:28;;;;;;;6.35;5.55;;;21.30;42.90;;;;;;5036138;28;20198;-87
2022/03/14 13:04:58;;;;;;;6.40;5.80;;;21.10;42.00;;;;;;5037477;28;20203;-87
2022/03/14 13:07:30;;;;;;;5.50;5.00;;;20.70;41.80;;;;;;5037046;28;20229;-86